Time;durP1;ratioP1;P1;durP2;ratioP2;P2;SDS_P1;SDS_P2;PMS_P1;PMS_P2;Temp;Humidity;BMP_temperature;BMP_pressure;BME280_temperature;BME280_humidity;BME280_pressure;Samples;Min_cycle;Max_cycle;Signal;HPM_P1;HPM_P2
2023/04/20 00:00:46;;;;;;;74.27;6.27;;;10.30;1.00;;;;;;5025829;28;20449;-88
2023/04/20 00:03:12;;;;;;;69.43;6.10;;;10.30;1.00;;;;;;5024085;28;20432;-87
2023/04/20 00:05:38;;;;;;;71.03;7.00;;;10.20;1.00;;;;;;5025406;28;20209;-87
2023/04/20 00:08:04;;;;;;;70.40;5.90;;;10.20;1.00;;;;;;5024818;28;20170;-87
2023/04/20 00:10:29;;;;;;;68.27;5.43;;;10.20;1.00;;;;;;5027531;28;20231;-86
2023/04/20 00:12:55;;;;;;;67.80;6.60;;;10.10;1.00;;;;;;5027130;28;20808;-87
2023/04/20 00:15:21;;;;;;;69.50;6.27;;;10.20;1.00;;;;;;5021922;28;20166;-86
2023/04/20 00:17:47;;;;;;;70.27;5.90;;;10.00;1.00;;;;;;5021778;28;20166;-86
2023/04/20 00:20:14;;;;;;;66.85;5.40;;;9.90;1.00;;;;;;5020425;28;20605;-86
2023/04/20 00:22:40;;;;;;;68.82;6.57;;;10.00;1.00;;;;;;5021097;28;20210;-86
2023/04/20 00:25:06;;;;;;;68.00;5.03;;;10.00;1.00;;;;;;5020743;28;20190;-86
2023/04/20 00:27:31;;;;;;;69.20;6.40;;;9.90;1.00;;;;;;5022674;28;20484;-86
2023/04/20 00:29:57;;;;;;;68.90;6.10;;;9.90;1.00;;;;;;5023503;28;20194;-86
2023/04/20 00:32:23;;;;;;;68.33;6.07;;;9.90;1.00;;;;;;5023020;28;20177;-86
2023/04/20 00:34:49;;;;;;;68.97;5.67;;;10.00;1.00;;;;;;5021874;28;20193;-88
2023/04/20 00:37:14;;;;;;;73.40;8.10;;;10.00;1.00;;;;;;5022143;28;20660;-87
2023/04/20 00:39:43;;;;;;;72.03;5.93;;;9.90;1.00;;;;;;5023690;28;20452;-87
2023/04/20 00:42:09;;;;;;;71.40;5.95;;;9.90;1.00;;;;;;5020864;28;20165;-87
2023/04/20 00:44:35;;;;;;;71.03;5.80;;;9.90;1.00;;;;;;5021858;28;20190;-87
2023/04/20 00:47:04;;;;;;;71.10;5.97;;;9.90;1.00;;;;;;5021759;28;20216;-86
2023/04/20 00:49:30;;;;;;;67.18;5.28;;;9.90;1.00;;;;;;5021885;28;20401;-86
2023/04/20 00:51:59;;;;;;;70.30;5.10;;;10.00;1.00;;;;;;5022031;28;20173;-86
2023/04/20 00:54:29;;;;;;;69.72;5.68;;;10.00;1.00;;;;;;5021588;28;20186;-86
2023/04/20 00:56:56;;;;;;;67.75;5.50;;;10.00;1.00;;;;;;5021962;28;20173;-87
2023/04/20 00:59:22;;;;;;;69.05;5.40;;;10.00;1.00;;;;;;5023109;28;20169;-86
2023/04/20 01:01:48;;;;;;;68.30;5.47;;;9.90;1.00;;;;;;5022124;28;20168;-87
2023/04/20 01:04:15;;;;;;;75.57;5.70;;;9.90;1.00;;;;;;5022736;28;20213;-87
2023/04/20 01:06:41;;;;;;;68.82;5.15;;;10.00;1.00;;;;;;5021133;28;20440;-87
2023/04/20 01:09:07;;;;;;;70.47;6.03;;;10.00;1.00;;;;;;5023039;28;20173;-88
2023/04/20 01:11:32;;;;;;;68.97;5.73;;;10.00;1.00;;;;;;5023070;28;20166;-87
2023/04/20 01:13:58;;;;;;;67.67;6.10;;;9.90;1.00;;;;;;5022821;28;20425;-88
2023/04/20 01:16:24;;;;;;;69.00;6.07;;;9.90;1.00;;;;;;5022936;28;20178;-87
2023/04/20 01:18:50;;;;;;;69.07;5.77;;;10.00;1.00;;;;;;5021057;28;20417;-88
2023/04/20 01:21:22;;;;;;;69.40;5.77;;;10.00;1.00;;;;;;5022357;28;20185;-87
2023/04/20 01:23:48;;;;;;;68.55;5.50;;;10.00;1.00;;;;;;5021841;28;20432;-87
2023/04/20 01:26:16;;;;;;;68.90;5.50;;;9.90;1.00;;;;;;5021083;28;20205;-87
2023/04/20 01:28:42;;;;;;;70.63;5.45;;;10.00;1.00;;;;;;5022845;28;20158;-87
2023/04/20 01:31:10;;;;;;;66.25;5.47;;;9.90;1.00;;;;;;5020529;28;20165;-87
2023/04/20 01:33:41;;;;;;;68.07;5.30;;;9.90;1.00;;;;;;5021697;28;20189;-88
2023/04/20 01:36:08;;;;;;;67.60;6.10;;;9.90;1.00;;;;;;5021120;28;20249;-88
2023/04/20 01:38:36;;;;;;;72.50;6.00;;;9.90;1.00;;;;;;5021326;28;20172;-88
2023/04/20 01:41:04;;;;;;;68.70;5.82;;;9.90;1.00;;;;;;5022664;28;20186;-88
2023/04/20 01:43:30;;;;;;;71.85;6.38;;;10.00;1.00;;;;;;5022933;28;20186;-88
2023/04/20 01:45:58;;;;;;;68.72;6.00;;;9.80;1.00;;;;;;5022019;28;20166;-87
2023/04/20 01:48:24;;;;;;;70.10;6.53;;;9.90;1.00;;;;;;5022306;28;20166;-87
2023/04/20 01:50:51;;;;;;;77.67;7.13;;;9.80;1.00;;;;;;5022877;28;20253;-87
2023/04/20 01:53:17;;;;;;;69.30;5.93;;;9.70;1.00;;;;;;5022020;28;20181;-86
2023/04/20 01:55:43;;;;;;;68.25;6.40;;;9.70;1.00;;;;;;5021689;28;20608;-86
2023/04/20 01:58:09;;;;;;;69.07;5.37;;;9.80;1.00;;;;;;5023562;28;20186;-87
2023/04/20 02:00:34;;;;;;;68.10;5.90;;;9.70;1.00;;;;;;5020995;28;20197;-88
2023/04/20 02:03:00;;;;;;;69.27;6.07;;;9.80;1.00;;;;;;5020875;28;20413;-86
2023/04/20 02:05:26;;;;;;;70.07;6.63;;;9.70;1.00;;;;;;5086145;23;20282;-80
2023/04/20 02:07:51;;;;;;;67.90;6.13;;;9.80;1.00;;;;;;5036344;28;20157;-81
2023/04/20 02:10:17;;;;;;;68.00;5.63;;;9.60;1.00;;;;;;5034160;28;20765;-81
2023/04/20 02:12:43;;;;;;;70.70;6.40;;;9.70;1.00;;;;;;5035371;28;20218;-80
2023/04/20 02:15:09;;;;;;;69.97;5.97;;;9.70;1.00;;;;;;5035229;28;20420;-79
2023/04/20 02:17:35;;;;;;;70.80;7.10;;;9.70;1.00;;;;;;5035999;28;20637;-80
2023/04/20 02:20:06;;;;;;;68.63;6.03;;;9.70;1.00;;;;;;5036106;28;20447;-79
2023/04/20 02:22:35;;;;;;;70.20;5.47;;;9.70;1.00;;;;;;5035960;28;20145;-80
2023/04/20 02:25:02;;;;;;;68.45;6.15;;;9.70;1.00;;;;;;5033884;28;20276;-80
2023/04/20 02:27:27;;;;;;;67.45;5.60;;;9.70;1.00;;;;;;5035421;28;20188;-80
2023/04/20 02:29:53;;;;;;;68.03;5.80;;;9.50;1.00;;;;;;5035327;28;20165;-80
2023/04/20 02:32:19;;;;;;;74.47;6.10;;;9.50;1.00;;;;;;5036245;28;20172;-80
2023/04/20 02:34:45;;;;;;;67.30;5.40;;;9.70;1.00;;;;;;5035631;28;20451;-80
2023/04/20 02:37:10;;;;;;;71.53;7.20;;;9.60;1.00;;;;;;5035372;28;20683;-80
2023/04/20 02:39:36;;;;;;;69.70;6.60;;;9.60;1.00;;;;;;5035711;28;20219;-80
2023/04/20 02:42:02;;;;;;;68.33;6.03;;;9.60;1.00;;;;;;5035570;28;20164;-80
2023/04/20 02:44:27;;;;;;;76.10;6.53;;;9.60;1.00;;;;;;5035113;28;20560;-80
2023/04/20 02:46:53;;;;;;;68.93;5.70;;;9.60;1.00;;;;;;5034870;28;20629;-80
2023/04/20 02:49:19;;;;;;;70.20;5.87;;;9.60;1.00;;;;;;5035129;28;20403;-80
2023/04/20 02:51:45;;;;;;;68.70;6.10;;;9.60;1.00;;;;;;5035080;28;20240;-80
2023/04/20 02:54:10;;;;;;;70.37;6.70;;;9.70;1.00;;;;;;5034912;28;20207;-80
2023/04/20 02:56:36;;;;;;;73.40;7.83;;;9.70;1.00;;;;;;5035153;28;20176;-80
2023/04/20 02:59:03;;;;;;;71.67;6.40;;;9.70;1.00;;;;;;5035701;28;20252;-80
2023/04/20 03:01:29;;;;;;;67.75;6.65;;;9.70;1.00;;;;;;5034612;28;20185;-80
2023/04/20 03:03:54;;;;;;;69.68;6.85;;;9.70;1.00;;;;;;5033639;28;20185;-80
2023/04/20 03:06:20;;;;;;;69.30;7.80;;;9.70;1.00;;;;;;5034871;28;20599;-80
2023/04/20 03:08:46;;;;;;;69.63;6.73;;;9.70;1.00;;;;;;5033893;28;20196;-80
2023/04/20 03:11:12;;;;;;;69.10;6.30;;;9.60;1.00;;;;;;5034868;28;20411;-80
2023/04/20 03:13:37;;;;;;;71.60;7.00;;;9.60;1.00;;;;;;5035192;28;20193;-80
2023/04/20 03:16:04;;;;;;;68.53;6.67;;;9.60;1.00;;;;;;5038441;28;20200;-80
2023/04/20 03:18:30;;;;;;;70.50;6.95;;;9.40;1.00;;;;;;5039263;28;20528;-80
2023/04/20 03:20:55;;;;;;;68.67;6.40;;;9.40;1.00;;;;;;5038551;28;20189;-80
2023/04/20 03:23:21;;;;;;;71.90;6.10;;;9.50;1.00;;;;;;5038511;28;20200;-80
2023/04/20 03:25:47;;;;;;;69.23;6.60;;;9.40;1.00;;;;;;5038878;28;20579;-80
2023/04/20 03:28:14;;;;;;;72.60;6.05;;;9.40;1.00;;;;;;5038766;28;20185;-80
2023/04/20 03:30:40;;;;;;;68.45;5.90;;;9.30;1.00;;;;;;5039092;28;20706;-80
2023/04/20 03:33:06;;;;;;;70.43;5.60;;;9.30;1.00;;;;;;5039055;28;20177;-80
2023/04/20 03:35:31;;;;;;;67.87;5.37;;;9.30;1.00;;;;;;5038611;28;20180;-80
2023/04/20 03:37:57;;;;;;;70.13;7.17;;;9.20;1.00;;;;;;5037574;28;20180;-80
2023/04/20 03:40:23;;;;;;;69.90;6.30;;;9.20;1.00;;;;;;5038580;28;20664;-80
2023/04/20 03:42:48;;;;;;;69.47;6.00;;;9.40;1.00;;;;;;5038636;28;20312;-80
2023/04/20 03:45:15;;;;;;;69.23;6.13;;;9.30;1.00;;;;;;5038777;28;20435;-79
2023/04/20 03:47:41;;;;;;;79.28;6.40;;;9.30;1.00;;;;;;5038240;28;20251;-80
2023/04/20 03:50:07;;;;;;;73.03;6.23;;;9.30;1.00;;;;;;5038886;28;20751;-80
2023/04/20 03:52:33;;;;;;;68.17;5.77;;;9.30;1.00;;;;;;5038746;28;20240;-81
2023/04/20 03:54:58;;;;;;;70.03;5.90;;;9.30;1.00;;;;;;5037503;28;20420;-80
2023/04/20 03:57:24;;;;;;;68.57;6.30;;;9.20;1.00;;;;;;5038479;28;20168;-80
2023/04/20 03:59:49;;;;;;;72.30;5.83;;;9.10;1.00;;;;;;5038110;28;20189;-80
2023/04/20 04:02:15;;;;;;;70.93;6.50;;;9.00;1.00;;;;;;5038034;28;20161;-80
2023/04/20 04:04:41;;;;;;;69.87;5.67;;;9.00;1.00;;;;;;5037482;28;20185;-80
2023/04/20 04:07:07;;;;;;;70.17;7.40;;;9.00;1.00;;;;;;5037888;28;20173;-80
2023/04/20 04:09:32;;;;;;;72.10;6.60;;;9.00;1.00;;;;;;5036726;28;20165;-80
2023/04/20 04:11:58;;;;;;;67.17;6.00;;;9.10;1.00;;;;;;5038124;28;20204;-80
2023/04/20 04:14:24;;;;;;;70.30;6.17;;;9.10;1.00;;;;;;5036836;28;20197;-80
2023/04/20 04:16:49;;;;;;;67.17;5.73;;;9.20;1.00;;;;;;5038128;28;20243;-80
2023/04/20 04:19:16;;;;;;;71.83;6.53;;;9.10;1.00;;;;;;5036558;28;20173;-80
2023/04/20 04:21:41;;;;;;;69.90;6.97;;;9.10;1.00;;;;;;5037307;28;20272;-80
2023/04/20 04:24:07;;;;;;;72.60;6.10;;;9.10;1.00;;;;;;5037515;28;20223;-80
2023/04/20 04:26:33;;;;;;;73.90;6.30;;;9.00;1.00;;;;;;5036234;28;20245;-80
2023/04/20 04:28:58;;;;;;;66.90;5.40;;;9.00;1.00;;;;;;5037793;28;20176;-80
2023/04/20 04:31:24;;;;;;;86.33;7.37;;;9.00;1.00;;;;;;5037554;28;20260;-80
2023/04/20 04:33:50;;;;;;;72.80;6.37;;;8.90;1.00;;;;;;5037792;28;20220;-80
2023/04/20 04:36:16;;;;;;;68.50;6.07;;;8.90;1.00;;;;;;5037398;28;20169;-80
2023/04/20 04:38:45;;;;;;;67.85;6.00;;;9.00;1.00;;;;;;5036906;28;20264;-80
2023/04/20 04:41:11;;;;;;;69.28;6.13;;;9.00;1.00;;;;;;5037161;28;20193;-79
2023/04/20 04:43:38;;;;;;;71.32;6.30;;;9.00;1.00;;;;;;5035911;28;20185;-79
2023/04/20 04:46:08;;;;;;;72.70;6.25;;;9.10;1.00;;;;;;5036996;28;20169;-79
2023/04/20 04:48:34;;;;;;;70.28;6.80;;;9.10;1.00;;;;;;5035557;28;20165;-79
2023/04/20 04:51:01;;;;;;;71.03;6.50;;;9.10;1.00;;;;;;5036628;28;20648;-79
2023/04/20 04:53:26;;;;;;;71.68;6.18;;;9.00;1.00;;;;;;5035056;28;20196;-79
2023/04/20 04:55:52;;;;;;;68.97;6.37;;;8.90;1.00;;;;;;5036703;28;20173;-80
2023/04/20 04:58:18;;;;;;;71.87;8.10;;;9.00;1.00;;;;;;5036793;28;20169;-80
2023/04/20 05:00:43;;;;;;;68.67;8.17;;;9.00;1.00;;;;;;5036650;28;20197;-80
2023/04/20 05:03:09;;;;;;;72.87;9.00;;;8.90;1.00;;;;;;5036165;28;20215;-80
2023/04/20 05:05:34;;;;;;;69.63;9.20;;;9.00;1.00;;;;;;5034854;28;20253;-80
2023/04/20 05:08:00;;;;;;;78.77;9.90;;;8.80;1.00;;;;;;5035181;28;20165;-80
2023/04/20 05:10:26;;;;;;;70.53;11.53;;;8.00;1.00;;;;;;5036334;28;20161;-81
2023/04/20 05:12:52;;;;;;;68.87;9.00;;;7.80;1.00;;;;;;5036225;28;20408;-80
2023/04/20 05:15:18;;;;;;;71.67;9.60;;;7.90;1.00;;;;;;5036082;28;20668;-80
2023/04/20 05:17:43;;;;;;;68.57;9.43;;;7.90;1.50;;;;;;5036449;28;20244;-80
2023/04/20 05:20:10;;;;;;;70.40;7.43;;;7.90;12.40;;;;;;5034166;28;20455;-81
2023/04/20 05:22:36;;;;;;;75.38;8.52;;;8.10;1.00;;;;;;5035669;28;20166;-80
2023/04/20 05:25:03;;;;;;;70.40;8.40;;;7.90;8.60;;;;;;5036001;28;20193;-81
2023/04/20 05:27:29;;;;;;;72.47;10.13;;;7.80;17.70;;;;;;5035513;28;20244;-80
2023/04/20 05:29:55;;;;;;;69.37;9.00;;;7.80;23.60;;;;;;5035546;28;20188;-80
2023/04/20 05:32:21;;;;;;;70.90;8.43;;;8.00;20.40;;;;;;5035911;28;20410;-80
2023/04/20 05:34:46;;;;;;;73.33;8.27;;;8.10;16.20;;;;;;5034198;28;20276;-80
2023/04/20 05:37:13;;;;;;;71.67;8.63;;;8.20;8.90;;;;;;5035346;28;20467;-81
2023/04/20 05:39:39;;;;;;;71.60;9.07;;;8.30;8.80;;;;;;5035435;28;20525;-80
2023/04/20 05:42:05;;;;;;;69.57;8.07;;;8.20;10.00;;;;;;5034032;28;20169;-81
2023/04/20 05:44:32;;;;;;;71.50;8.17;;;8.30;13.00;;;;;;5035837;28;20184;-80
2023/04/20 05:46:58;;;;;;;71.97;9.50;;;8.40;7.90;;;;;;5033910;28;20232;-80
2023/04/20 05:49:24;;;;;;;72.30;9.90;;;8.40;26.60;;;;;;5035234;28;20195;-80
2023/04/20 05:51:50;;;;;;;69.83;9.03;;;8.50;32.10;;;;;;5035939;28;20530;-81
2023/04/20 05:54:16;;;;;;;70.10;8.53;;;8.50;15.50;;;;;;5036134;28;20189;-80
2023/04/20 05:56:41;;;;;;;69.10;8.37;;;8.60;15.50;;;;;;5035822;28;20491;-81
2023/04/20 05:59:07;;;;;;;71.30;8.80;;;8.50;17.00;;;;;;5034350;28;20415;-81
2023/04/20 06:01:33;;;;;;;71.57;9.43;;;8.50;17.30;;;;;;5035741;28;20257;-81
2023/04/20 06:03:59;;;;;;;69.07;8.07;;;8.50;19.10;;;;;;5034318;28;20272;-80
2023/04/20 06:06:25;;;;;;;70.00;9.80;;;8.40;22.10;;;;;;5035384;28;20481;-80
2023/04/20 06:08:51;;;;;;;67.60;8.33;;;8.40;27.50;;;;;;5035600;28;20416;-80
2023/04/20 06:11:17;;;;;;;74.45;8.35;;;8.50;29.90;;;;;;5035280;28;20415;-80
2023/04/20 06:13:43;;;;;;;67.77;8.03;;;8.40;28.50;;;;;;5035122;28;20185;-81
2023/04/20 06:16:09;;;;;;;69.17;10.30;;;8.40;36.60;;;;;;5034061;28;20710;-80
2023/04/20 06:18:36;;;;;;;71.97;9.60;;;8.40;31.40;;;;;;5033589;28;20187;-81
2023/04/20 06:21:02;;;;;;;68.65;9.73;;;8.40;33.80;;;;;;5033872;28;20193;-80
2023/04/20 06:23:28;;;;;;;71.35;9.98;;;8.50;37.00;;;;;;5035232;28;20177;-81
2023/04/20 06:25:54;;;;;;;70.10;9.63;;;8.50;40.30;;;;;;5035031;28;20206;-81
2023/04/20 06:28:20;;;;;;;71.50;10.53;;;8.30;47.10;;;;;;5035038;28;20290;-81
2023/04/20 06:30:45;;;;;;;71.37;10.40;;;8.20;43.90;;;;;;5035225;28;20656;-81
2023/04/20 06:33:16;;;;;;;69.00;10.43;;;8.00;42.80;;;;;;5035077;28;20423;-81
2023/04/20 06:35:42;;;;;;;75.13;11.15;;;8.10;35.10;;;;;;5035387;28;20223;-80
2023/04/20 06:38:08;;;;;;;71.63;10.57;;;8.00;48.10;;;;;;5035286;28;20569;-81
2023/04/20 06:40:33;;;;;;;69.67;10.50;;;8.00;47.10;;;;;;5035025;28;20232;-81
2023/04/20 06:42:59;;;;;;;71.70;9.97;;;7.90;57.90;;;;;;5035394;28;20446;-81
2023/04/20 06:45:25;;;;;;;72.30;10.77;;;8.00;60.20;;;;;;5035478;28;20169;-81
2023/04/20 06:47:51;;;;;;;73.05;11.38;;;8.10;68.60;;;;;;5035423;28;20392;-81
2023/04/20 06:50:17;;;;;;;74.67;10.27;;;7.90;88.60;;;;;;5037886;28;20181;-82
2023/04/20 06:52:44;;;;;;;71.63;10.60;;;7.90;91.10;;;;;;5038013;28;20729;-82
2023/04/20 06:55:09;;;;;;;72.90;10.38;;;8.00;92.80;;;;;;5039063;28;20185;-82
2023/04/20 06:57:37;;;;;;;71.10;11.53;;;7.80;97.00;;;;;;5039315;28;20276;-81
2023/04/20 07:00:07;;;;;;;71.18;10.75;;;7.80;99.90;;;;;;5038978;28;20447;-81
2023/04/20 07:02:46;;;;;;;72.10;11.32;;;7.80;99.90;;;;;;5039265;28;20180;-82
2023/04/20 07:05:13;;;;;;;73.00;11.00;;;7.70;99.90;;;;;;5037536;28;20185;-82
2023/04/20 07:07:39;;;;;;;70.32;11.30;;;7.60;99.90;;;;;;5039279;28;20636;-82
2023/04/20 07:10:07;;;;;;;76.65;13.35;;;7.80;99.90;;;;;;5037855;28;20173;-82
2023/04/20 07:12:35;;;;;;;92.15;66.03;;;7.90;99.90;;;;;;5037398;28;20180;-82
2023/04/20 07:15:05;;;;;;;74.03;12.43;;;7.70;99.90;;;;;;5038016;28;20181;-83
2023/04/20 07:17:31;;;;;;;75.40;13.75;;;7.80;99.90;;;;;;5039504;28;20161;-82
2023/04/20 07:19:58;;;;;;;72.60;14.40;;;7.70;99.90;;;;;;5035811;28;20219;-82
2023/04/20 07:22:24;;;;;;;72.03;14.15;;;7.70;99.90;;;;;;5036333;28;20408;-82
2023/04/20 07:24:50;;;;;;;73.00;13.10;;;7.80;99.90;;;;;;5036030;28;20189;-82
2023/04/20 07:27:17;;;;;;;73.78;14.32;;;7.90;99.90;;;;;;5038252;28;20157;-82
2023/04/20 07:29:42;;;;;;;74.95;13.60;;;7.90;99.90;;;;;;5038563;28;20245;-83
2023/04/20 07:32:08;;;;;;;73.60;13.97;;;8.00;99.90;;;;;;5039379;28;20192;-83
2023/04/20 07:34:34;;;;;;;74.40;12.40;;;8.10;99.90;;;;;;5036514;28;20189;-83
2023/04/20 07:36:59;;;;;;;72.30;12.67;;;8.20;99.90;;;;;;5037949;28;20659;-82
2023/04/20 07:39:27;;;;;;;77.67;16.53;;;8.10;99.90;;;;;;5037531;28;20184;-82
2023/04/20 07:41:53;;;;;;;70.80;12.48;;;8.20;99.90;;;;;;5036484;28;20520;-83
2023/04/20 07:44:19;;;;;;;73.77;13.37;;;8.00;99.90;;;;;;5037917;28;20271;-82
2023/04/20 07:46:44;;;;;;;72.40;13.33;;;8.00;99.90;;;;;;5037312;28;20431;-82
2023/04/20 07:49:10;;;;;;;71.40;13.13;;;8.00;99.90;;;;;;5037883;28;20163;-83
2023/04/20 07:51:35;;;;;;;71.63;13.67;;;8.20;99.90;;;;;;5037568;28;20166;-83
2023/04/20 07:54:02;;;;;;;74.83;15.80;;;8.10;99.90;;;;;;5037728;28;20190;-83
2023/04/20 07:56:31;;;;;;;72.22;13.13;;;8.10;99.90;;;;;;5035954;28;20179;-82
2023/04/20 07:58:56;;;;;;;71.43;14.70;;;8.30;99.90;;;;;;5036048;28;20540;-83
2023/04/20 08:01:25;;;;;;;70.27;14.03;;;8.40;99.90;;;;;;5036512;28;20189;-81
2023/04/20 08:03:51;;;;;;;75.90;15.68;;;8.50;99.90;;;;;;5035520;28;20193;-82
2023/04/20 08:06:21;;;;;;;73.20;13.13;;;8.50;99.90;;;;;;5100533;22;20218;-87
2023/04/20 08:12:16;;;;;;;71.05;11.85;;;8.50;99.90;;;;;;4987577;28;20167;-87
2023/04/20 08:14:45;;;;;;;69.65;9.00;;;8.60;99.90;;;;;;4975823;28;20190;-87
2023/04/20 08:17:14;;;;;;;71.65;10.57;;;8.70;99.90;;;;;;5011478;28;20185;-87
2023/04/20 08:19:40;;;;;;;67.32;7.95;;;8.80;99.90;;;;;;5014722;28;20245;-87
2023/04/20 08:22:06;;;;;;;69.83;8.60;;;9.00;99.90;;;;;;5014966;28;20169;-87
2023/04/20 08:24:32;;;;;;;67.97;8.37;;;9.00;94.30;;;;;;5014705;28;20189;-88
2023/04/20 08:26:58;;;;;;;67.00;8.30;;;8.50;99.90;;;;;;5014342;28;20912;-87
2023/04/20 08:29:25;;;;;;;68.60;10.45;;;8.30;99.90;;;;;;5014573;28;20703;-87
2023/04/20 08:31:57;;;;;;;69.28;9.85;;;8.40;99.90;;;;;;5016293;28;20526;-87
2023/04/20 08:34:41;;;;;;;69.90;10.80;;;8.60;99.90;;;;;;5015432;28;20784;-87
2023/04/20 08:37:08;;;;;;;71.40;12.07;;;8.50;99.90;;;;;;5016323;28;20192;-87
2023/04/20 08:39:35;;;;;;;70.93;13.52;;;8.60;99.90;;;;;;5015224;28;20170;-87
2023/04/20 08:42:14;;;;;;;;;;;;;;;;;;;;;
2023/04/20 08:44:42;;;;;;;68.47;8.73;;;8.80;99.90;;;;;;5015995;28;20181;-87
2023/04/20 08:47:18;;;;;;;68.60;9.40;;;8.80;99.90;;;;;;5014846;28;20241;-87
2023/04/20 08:49:51;;;;;;;68.53;10.35;;;8.50;99.90;;;;;;5014888;28;20173;-87
2023/04/20 08:52:17;;;;;;;68.57;11.32;;;8.40;99.90;;;;;;5015601;28;20166;-87
2023/04/20 08:54:52;;;;;;;69.83;12.67;;;8.40;99.90;;;;;;5014447;28;20204;-87
2023/04/20 08:58:09;;;;;;;73.82;15.20;;;8.50;99.90;;;;;;5015295;28;20844;-88
2023/04/20 09:00:56;;;;;;;;;;;;;;;;;;;;;
2023/04/20 09:03:43;;;;;;;71.75;17.67;;;8.40;99.90;;;;;;5016045;28;20189;-88
2023/04/20 09:06:25;;;;;;;70.22;13.80;;;8.40;99.90;;;;;;5014168;28;20197;-87
2023/04/20 09:09:12;;;;;;;70.35;13.15;;;8.40;99.90;;;;;;5015421;28;20628;-88
2023/04/20 09:11:39;;;;;;;68.53;11.57;;;8.50;99.90;;;;;;5014557;28;20189;-87
2023/04/20 09:14:54;;;;;;;66.63;8.93;;;8.60;99.90;;;;;;5014141;28;20217;-88
2023/04/20 09:18:07;;;;;;;68.25;9.68;;;8.70;99.90;;;;;;5015286;28;20494;-88
2023/04/20 09:20:52;;;;;;;66.68;6.28;;;8.60;99.90;;;;;;5007365;28;20296;-88
2023/04/20 09:23:22;;;;;;;66.50;6.75;;;8.50;93.10;;;;;;5015229;28;20174;-88
2023/04/20 09:25:54;;;;;;;66.78;6.60;;;8.50;95.00;;;;;;5013595;28;20526;-88
2023/04/20 09:28:22;;;;;;;66.88;7.15;;;8.40;93.30;;;;;;5014872;28;20162;-87
2023/04/20 09:30:50;;;;;;;67.38;6.55;;;8.40;96.00;;;;;;5014350;28;20182;-88
2023/04/20 09:33:19;;;;;;;66.13;6.55;;;8.60;97.40;;;;;;5013422;28;20197;-87
2023/04/20 09:35:45;;;;;;;67.45;7.25;;;8.70;94.90;;;;;;5014934;28;20531;-88
2023/04/20 09:38:24;;;;;;;67.90;7.22;;;8.60;95.50;;;;;;5015092;28;20172;-87
2023/04/20 09:40:50;;;;;;;66.22;6.63;;;8.70;95.30;;;;;;5014127;28;20641;-87
2023/04/20 09:43:27;;;;;;;67.47;6.00;;;8.80;88.20;;;;;;5014829;28;20206;-87
2023/04/20 09:45:55;;;;;;;67.70;6.88;;;8.50;89.90;;;;;;5014690;28;20161;-87
2023/04/20 09:48:21;;;;;;;70.82;11.02;;;8.50;99.90;;;;;;5013657;28;20261;-88
2023/04/20 09:50:47;;;;;;;68.35;9.55;;;8.60;99.90;;;;;;5014416;28;20244;-87
2023/04/20 09:53:19;;;;;;;66.85;7.97;;;8.50;99.90;;;;;;5014815;28;20193;-88
2023/04/20 09:55:57;;;;;;;66.03;8.52;;;8.50;99.90;;;;;;5014915;28;20212;-87
2023/04/20 09:58:30;;;;;;;66.85;9.70;;;8.50;99.90;;;;;;5013696;28;20162;-87
2023/04/20 10:00:56;;;;;;;66.10;9.13;;;8.70;99.90;;;;;;5014501;28;20182;-87
2023/04/20 10:03:34;;;;;;;65.70;8.27;;;8.80;99.90;;;;;;5012818;28;20236;-87
2023/04/20 10:05:59;;;;;;;65.53;6.50;;;9.00;99.90;;;;;;5014075;28;20178;-86
2023/04/20 10:08:25;;;;;;;64.70;4.63;;;9.20;99.90;;;;;;5014506;28;20166;-87
2023/04/20 10:10:53;;;;;;;63.17;4.60;;;9.30;97.20;;;;;;5014441;28;20677;-87
2023/04/20 10:13:43;;;;;;;;;;;;;;;;;;;;;
2023/04/20 10:16:38;;;;;;;;;;;;;;;;;;;;;
2023/04/20 10:19:07;;;;;;;64.68;4.45;;;9.00;88.10;;;;;;5015102;28;20530;-87
2023/04/20 10:21:52;;;;;;;63.92;4.50;;;9.10;92.10;;;;;;5014691;28;20188;-88
2023/04/20 10:24:34;;;;;;;65.90;4.75;;;9.10;92.50;;;;;;5013464;28;20188;-87
2023/04/20 10:27:03;;;;;;;63.50;3.95;;;9.20;96.60;;;;;;5014725;28;20197;-87
2023/04/20 10:33:13;;;;;;;64.28;4.22;;;8.80;92.70;;;;;;4972738;28;20178;-89
2023/04/20 10:39:01;;;;;;;67.13;10.80;;;8.60;99.90;;;;;;5012539;28;20197;-88
2023/04/20 10:41:30;;;;;;;65.93;8.02;;;8.80;99.90;;;;;;5013879;28;20181;-88
2023/04/20 10:44:14;;;;;;;69.28;8.75;;;9.00;99.90;;;;;;5012635;28;20239;-88
2023/04/20 10:46:40;;;;;;;68.05;6.25;;;9.30;99.90;;;;;;5013399;28;20249;-88
2023/04/20 10:49:13;;;;;;;64.27;4.53;;;9.60;99.90;;;;;;5012452;28;20170;-88
2023/04/20 10:51:52;;;;;;;65.30;5.47;;;9.70;94.70;;;;;;5012585;28;20166;-87
2023/04/20 10:54:20;;;;;;;64.95;4.88;;;10.10;98.10;;;;;;5013395;28;20190;-87
2023/04/20 10:56:53;;;;;;;64.20;4.28;;;10.50;94.70;;;;;;5013485;28;20223;-87
2023/04/20 10:59:27;;;;;;;63.38;3.60;;;10.70;92.80;;;;;;5013634;28;20158;-88
2023/04/20 11:01:54;;;;;;;64.45;3.35;;;11.00;83.00;;;;;;5013422;28;20197;-87
2023/04/20 11:04:32;;;;;;;65.30;3.65;;;10.60;42.50;;;;;;5011950;28;20650;-87
2023/04/20 11:07:08;;;;;;;63.70;3.60;;;10.40;61.00;;;;;;5011849;28;20196;-87
2023/04/20 11:09:37;;;;;;;64.55;3.40;;;10.30;69.80;;;;;;5013744;28;20142;-87
2023/04/20 11:12:14;;;;;;;63.13;3.22;;;10.20;76.60;;;;;;5012089;28;20269;-87
2023/04/20 11:14:52;;;;;;;63.92;4.10;;;10.40;76.70;;;;;;5013388;28;20337;-87
2023/04/20 11:17:31;;;;;;;63.67;3.65;;;10.70;70.80;;;;;;4995548;28;20166;-87
2023/04/20 11:20:17;;;;;;;63.22;3.20;;;10.90;58.00;;;;;;5012963;28;20167;-88
2023/04/20 11:22:57;;;;;;;64.50;3.60;;;10.60;53.20;;;;;;5012989;28;20181;-88
2023/04/20 11:25:23;;;;;;;63.35;3.60;;;10.50;47.40;;;;;;5013316;28;20618;-88
2023/04/20 11:27:48;;;;;;;63.47;4.00;;;10.50;63.70;;;;;;5013074;28;20165;-88
2023/04/20 11:30:14;;;;;;;64.00;3.50;;;10.40;31.50;;;;;;5012917;28;20307;-87
2023/04/20 11:32:56;;;;;;;64.37;3.60;;;10.40;35.40;;;;;;5011753;28;20304;-87
2023/04/20 11:35:22;;;;;;;64.00;4.47;;;10.50;31.50;;;;;;5013672;28;20397;-87
2023/04/20 11:37:52;;;;;;;63.67;4.20;;;10.50;16.30;;;;;;5017133;28;20634;-87
2023/04/20 11:40:18;;;;;;;65.50;5.00;;;10.40;19.60;;;;;;5015791;28;20452;-87
2023/04/20 11:42:45;;;;;;;65.00;4.57;;;10.40;25.10;;;;;;5017114;28;20162;-86
2023/04/20 11:45:10;;;;;;;64.57;4.40;;;10.40;18.20;;;;;;5017241;28;20285;-87
2023/04/20 11:47:37;;;;;;;64.90;4.40;;;10.60;18.60;;;;;;5015755;28;20197;-87
2023/04/20 11:50:05;;;;;;;65.05;4.28;;;10.70;11.90;;;;;;5017103;28;20434;-87
2023/04/20 11:52:34;;;;;;;64.63;4.65;;;10.80;10.40;;;;;;5015237;28;20228;-89
2023/04/20 11:55:02;;;;;;;64.50;5.13;;;10.80;4.00;;;;;;5015723;28;20252;-87
2023/04/20 11:57:31;;;;;;;63.92;4.13;;;10.80;1.00;;;;;;5015566;28;20261;-87
2023/04/20 11:59:57;;;;;;;64.22;4.35;;;10.70;6.20;;;;;;5016558;28;20180;-87
2023/04/20 12:02:23;;;;;;;64.72;5.18;;;10.60;1.50;;;;;;5017800;28;20642;-87
2023/04/20 12:04:49;;;;;;;65.40;4.50;;;10.50;11.60;;;;;;5018424;28;20257;-87
2023/04/20 12:07:17;;;;;;;65.40;4.50;;;10.80;11.10;;;;;;5017929;28;20181;-87
2023/04/20 12:09:43;;;;;;;66.88;5.72;;;10.90;7.00;;;;;;5018390;28;20241;-87
2023/04/20 12:12:09;;;;;;;64.20;4.40;;;11.00;1.00;;;;;;5017947;28;20264;-87
2023/04/20 12:14:35;;;;;;;65.87;5.13;;;11.10;1.00;;;;;;5015735;28;20196;-87
2023/04/20 12:17:02;;;;;;;66.00;4.50;;;11.30;1.00;;;;;;5015356;28;20538;-87
2023/04/20 12:19:28;;;;;;;65.43;5.47;;;11.50;1.00;;;;;;5015310;28;20202;-87
2023/04/20 12:21:54;;;;;;;66.70;6.03;;;11.70;1.00;;;;;;5016937;28;20200;-86
2023/04/20 12:24:20;;;;;;;66.20;5.68;;;11.40;1.00;;;;;;5019984;28;20441;-87
2023/04/20 12:26:46;;;;;;;65.97;5.30;;;11.40;1.00;;;;;;5018850;28;20204;-87
2023/04/20 12:29:12;;;;;;;65.67;5.70;;;11.70;1.00;;;;;;5019650;28;20189;-86
2023/04/20 12:31:46;;;;;;;66.63;6.43;;;11.80;1.00;;;;;;5020178;28;20589;-87
2023/04/20 12:34:12;;;;;;;69.35;5.35;;;11.60;1.00;;;;;;5017499;28;20561;-87
2023/04/20 12:36:38;;;;;;;66.60;5.50;;;11.60;1.00;;;;;;5017373;28;20180;-87
2023/04/20 12:39:06;;;;;;;64.60;4.73;;;11.40;1.00;;;;;;5019236;28;20166;-87
2023/04/20 12:41:35;;;;;;;64.80;5.00;;;11.30;1.00;;;;;;5021061;28;21007;-87
2023/04/20 12:44:01;;;;;;;66.13;5.25;;;11.00;1.00;;;;;;5021712;28;20186;-87
2023/04/20 12:46:27;;;;;;;64.38;4.45;;;11.00;1.00;;;;;;5019038;28;20174;-88
2023/04/20 12:48:53;;;;;;;68.63;6.07;;;11.10;1.00;;;;;;5020490;28;20264;-88
2023/04/20 12:51:19;;;;;;;64.93;5.00;;;11.10;1.00;;;;;;5019430;28;20209;-86
2023/04/20 12:53:45;;;;;;;64.90;5.13;;;11.30;1.00;;;;;;5020417;28;20224;-87
2023/04/20 12:56:10;;;;;;;67.25;6.32;;;11.50;1.00;;;;;;5021060;28;20455;-87
2023/04/20 12:58:36;;;;;;;65.30;5.33;;;11.80;1.00;;;;;;5019745;28;20641;-87
2023/04/20 13:01:02;;;;;;;68.77;6.23;;;11.90;1.00;;;;;;5020664;28;20253;-87
2023/04/20 13:03:31;;;;;;;67.78;7.50;;;11.90;1.00;;;;;;5020799;28;20181;-87
2023/04/20 13:05:58;;;;;;;67.63;7.30;;;11.80;1.00;;;;;;5019637;28;20185;-87
2023/04/20 13:08:24;;;;;;;66.70;6.97;;;11.90;1.00;;;;;;5020378;28;20256;-88